createdAt,value
2023-02-05T00:00:11.231Z,10.77
2023-02-05T00:02:39.371Z,9.87
2023-02-05T00:05:10.378Z,10.40
2023-02-05T00:07:38.563Z,11.40
2023-02-05T00:10:09.899Z,11.93
2023-02-05T00:12:38.771Z,9.73
2023-02-05T00:15:08.583Z,10.57
2023-02-05T00:17:37.197Z,11.50
2023-02-05T00:20:06.913Z,12.47
2023-02-05T00:22:35.009Z,12.00
2023-02-05T00:25:03.262Z,12.10
2023-02-05T00:27:33.662Z,13.10
2023-02-05T00:30:01.813Z,10.87
2023-02-05T00:32:30.102Z,11.77
2023-02-05T00:34:58.215Z,11.70
2023-02-05T00:37:26.341Z,9.97
2023-02-05T00:39:54.464Z,9.43
2023-02-05T00:42:22.571Z,9.53
2023-02-05T00:44:52.135Z,9.40
2023-02-05T00:47:20.462Z,8.90
2023-02-05T00:49:48.571Z,9.20
2023-02-05T00:52:16.892Z,10.20
2023-02-05T00:54:45.192Z,9.87
2023-02-05T00:57:14.639Z,8.23
2023-02-05T00:59:42.851Z,8.70
2023-02-05T01:02:12.479Z,7.50
2023-02-05T01:04:40.724Z,9.40
2023-02-05T01:07:09.875Z,10.13
2023-02-05T01:09:38.008Z,9.17
2023-02-05T01:12:08.628Z,8.83
2023-02-05T01:14:36.822Z,9.87
2023-02-05T01:17:04.981Z,8.90
2023-02-05T01:19:35.907Z,9.80
2023-02-05T01:22:04.627Z,7.70
2023-02-05T01:24:33.361Z,9.17
2023-02-05T01:27:01.558Z,8.40
2023-02-05T01:29:30.233Z,9.80
2023-02-05T01:31:58.482Z,9.47
2023-02-05T01:34:26.747Z,8.87
2023-02-05T01:36:56.381Z,9.20
2023-02-05T01:39:24.511Z,9.50
2023-02-05T01:41:52.614Z,8.90
2023-02-05T01:44:24.577Z,9.00
2023-02-05T01:46:54.132Z,10.33
2023-02-05T01:49:25.910Z,10.20
2023-02-05T01:51:57.636Z,10.77
2023-02-05T01:54:29.600Z,10.30
2023-02-05T01:57:03.300Z,9.70
2023-02-05T01:59:34.131Z,9.20
2023-02-05T02:02:06.361Z,9.43
2023-02-05T02:04:40.049Z,9.90
2023-02-05T02:07:12.864Z,9.80
2023-02-05T02:09:44.405Z,9.23
2023-02-05T02:12:15.184Z,8.13
2023-02-05T02:14:47.705Z,9.43
2023-02-05T02:17:18.414Z,9.20
2023-02-05T02:19:53.140Z,8.37
2023-02-05T02:22:51.527Z,7.37
2023-02-05T02:25:53.479Z,8.67
2023-02-05T02:28:28.382Z,8.60
2023-02-05T02:31:03.990Z,8.77
2023-02-05T02:33:37.371Z,7.80
2023-02-05T02:36:11.180Z,8.63
2023-02-05T02:38:45.014Z,9.40
2023-02-05T02:41:18.724Z,8.80
2023-02-05T02:43:53.328Z,9.37
2023-02-05T02:46:27.899Z,7.90
2023-02-05T02:48:58.386Z,8.30
2023-02-05T02:51:29.138Z,9.10
2023-02-05T02:54:00.156Z,9.33
2023-02-05T02:56:33.549Z,8.67
2023-02-05T02:59:07.273Z,8.93
2023-02-05T03:01:46.922Z,9.53
2023-02-05T03:04:22.643Z,9.57
2023-02-05T03:06:53.779Z,12.00
2023-02-05T03:09:28.125Z,10.70
2023-02-05T03:11:56.428Z,11.57
2023-02-05T03:14:27.771Z,11.37
2023-02-05T03:16:56.328Z,12.53
2023-02-05T03:19:25.015Z,13.40
2023-02-05T03:21:57.566Z,14.10
2023-02-05T03:24:25.903Z,14.87
2023-02-05T03:26:54.029Z,14.77
2023-02-05T03:29:30.786Z,16.53
2023-02-05T03:32:15.958Z,15.77
2023-02-05T03:34:53.833Z,18.53
2023-02-05T03:37:29.913Z,18.00
2023-02-05T03:40:15.897Z,17.70
2023-02-05T03:42:54.370Z,17.90
2023-02-05T03:45:34.275Z,19.80
2023-02-05T03:48:22.332Z,19.17
2023-02-05T03:50:56.730Z,18.10
2023-02-05T03:53:34.290Z,19.00
2023-02-05T03:56:11.147Z,20.30
2023-02-05T03:58:43.273Z,21.07
2023-02-05T04:01:14.160Z,22.43
2023-02-05T04:03:44.218Z,23.03
2023-02-05T04:06:13.290Z,23.83
2023-02-05T04:08:44.036Z,24.30
2023-02-05T04:11:14.411Z,23.83
2023-02-05T04:13:44.660Z,24.73
2023-02-05T04:16:14.999Z,24.37
2023-02-05T04:18:43.766Z,23.40
2023-02-05T04:21:11.920Z,22.87
2023-02-05T04:23:42.809Z,22.93
2023-02-05T04:26:11.502Z,24.83
2023-02-05T04:28:55.266Z,24.63
2023-02-05T04:31:25.370Z,22.33
2023-02-05T04:33:53.673Z,22.90
2023-02-05T04:36:22.748Z,22.37
2023-02-05T04:38:51.374Z,23.13
2023-02-05T04:41:22.190Z,20.37
2023-02-05T04:43:55.964Z,21.40
2023-02-05T04:46:28.117Z,20.73
2023-02-05T04:48:56.898Z,20.53
2023-02-05T04:51:25.110Z,22.43
2023-02-05T04:53:58.116Z,21.30
2023-02-05T04:56:26.854Z,20.03
2023-02-05T04:59:00.119Z,23.50
2023-02-05T05:01:31.628Z,23.30
2023-02-05T05:04:06.060Z,24.47
2023-02-05T05:06:38.093Z,25.50
2023-02-05T05:09:07.666Z,23.43
2023-02-05T05:11:36.363Z,25.30
2023-02-05T05:14:07.685Z,26.30
2023-02-05T05:16:37.328Z,24.53
2023-02-05T05:19:07.521Z,24.37
2023-02-05T05:21:35.917Z,26.83
2023-02-05T05:24:05.098Z,27.80
2023-02-05T05:26:35.559Z,28.47
2023-02-05T05:29:06.233Z,27.47
2023-02-05T05:31:36.027Z,28.67
2023-02-05T05:34:05.896Z,27.87
2023-02-05T05:36:35.455Z,30.70
2023-02-05T05:39:17.650Z,28.37
2023-02-05T05:42:06.141Z,27.47
2023-02-05T05:44:35.231Z,26.67
2023-02-05T05:47:19.210Z,29.17
2023-02-05T05:49:52.470Z,25.37
2023-02-05T05:52:20.864Z,26.43
2023-02-05T05:54:49.177Z,24.30
2023-02-05T05:57:21.039Z,27.67
2023-02-05T05:59:49.590Z,23.30
2023-02-05T06:02:20.753Z,23.17
2023-02-05T06:04:52.906Z,23.13
2023-02-05T06:07:26.707Z,23.17
2023-02-05T06:10:02.470Z,21.30
2023-02-05T06:12:31.908Z,32.37
2023-02-05T06:15:02.840Z,23.97
2023-02-05T06:17:33.784Z,19.87
2023-02-05T06:20:07.152Z,21.00
2023-02-05T06:22:40.280Z,20.17
2023-02-05T06:25:12.579Z,17.63
2023-02-05T06:27:45.187Z,18.23
2023-02-05T06:30:16.683Z,19.47
2023-02-05T06:32:45.081Z,17.00
2023-02-05T06:35:29.183Z,18.83
2023-02-05T06:38:05.092Z,17.80
2023-02-05T06:40:56.224Z,18.20
2023-02-05T06:43:28.871Z,57.13
2023-02-05T06:46:02.686Z,22.97
2023-02-05T06:48:30.904Z,16.80
2023-02-05T06:51:00.527Z,16.47
2023-02-05T06:53:28.866Z,14.47
2023-02-05T06:55:59.449Z,13.90
2023-02-05T06:58:27.712Z,14.00
2023-02-05T07:00:56.007Z,13.93
2023-02-05T07:03:26.295Z,14.90
2023-02-05T07:05:54.478Z,14.30
2023-02-05T07:08:24.038Z,14.80
2023-02-05T07:10:52.245Z,14.00
2023-02-05T07:13:20.557Z,13.33
2023-02-05T07:15:49.697Z,13.37
2023-02-05T07:18:18.268Z,14.17
2023-02-05T07:20:46.489Z,14.13
2023-02-05T07:23:15.219Z,15.20
2023-02-05T07:25:44.865Z,14.00
2023-02-05T07:28:13.124Z,13.20
2023-02-05T07:30:41.365Z,14.87
2023-02-05T07:33:10.122Z,14.40
2023-02-05T07:35:39.437Z,14.30
2023-02-05T07:38:07.682Z,12.90
2023-02-05T07:40:37.638Z,14.30
2023-02-05T07:43:07.302Z,15.00
2023-02-05T07:45:37.699Z,14.23
2023-02-05T07:48:08.922Z,15.00
2023-02-05T07:50:37.360Z,14.60
2023-02-05T07:53:05.630Z,33.50
2023-02-05T07:55:35.742Z,21.10
2023-02-05T07:58:04.325Z,14.77
2023-02-05T08:00:34.027Z,14.23
2023-02-05T08:03:02.437Z,13.30
2023-02-05T08:05:30.634Z,13.20
2023-02-05T08:07:59.142Z,13.40
2023-02-05T08:10:27.399Z,12.37
2023-02-05T08:12:56.271Z,10.77
2023-02-05T08:15:24.529Z,10.30
2023-02-05T08:17:54.094Z,7.90
2023-02-05T08:20:22.369Z,6.60
2023-02-05T08:22:50.529Z,3.90
2023-02-05T08:25:18.838Z,2.83
2023-02-05T08:27:49.166Z,1.63
2023-02-05T08:30:22.303Z,2.40
2023-02-05T08:32:51.344Z,1.43
2023-02-05T08:35:21.050Z,1.53
2023-02-05T08:37:49.287Z,1.40
2023-02-05T08:40:18.038Z,1.00
2023-02-05T08:42:46.773Z,1.37
2023-02-05T08:45:15.120Z,1.17
2023-02-05T08:47:43.471Z,1.17
2023-02-05T08:50:12.205Z,1.07
2023-02-05T08:52:44.283Z,13.20
2023-02-05T08:55:12.647Z,2.97
2023-02-05T08:57:41.014Z,1.27
2023-02-05T09:00:10.394Z,1.33
2023-02-05T09:02:38.656Z,1.17
2023-02-05T09:05:09.331Z,1.30
2023-02-05T09:07:38.608Z,1.10
2023-02-05T09:10:10.138Z,1.70
2023-02-05T09:12:38.613Z,1.20
2023-02-05T09:15:07.702Z,2.20
2023-02-05T09:17:35.991Z,1.97
2023-02-05T09:20:04.959Z,2.00
2023-02-05T09:22:33.326Z,1.20
2023-02-05T09:25:01.632Z,1.70
2023-02-05T09:27:31.542Z,1.63
2023-02-05T09:29:59.799Z,2.63
2023-02-05T09:32:28.029Z,1.47
2023-02-05T09:34:56.213Z,1.97
2023-02-05T09:37:25.497Z,9.73
2023-02-05T09:40:19.631Z,9.47
2023-02-05T09:42:53.324Z,3.00
2023-02-05T09:45:38.527Z,1.90
2023-02-05T09:48:24.833Z,2.20
2023-02-05T09:50:53.494Z,2.47
2023-02-05T09:53:23.666Z,2.40
2023-02-05T09:55:51.889Z,2.20
2023-02-05T09:58:25.824Z,2.70
2023-02-05T10:00:59.409Z,2.17
2023-02-05T10:03:33.040Z,2.10
2023-02-05T10:06:15.119Z,2.20
2023-02-05T10:08:54.053Z,2.20
2023-02-05T10:11:29.054Z,2.17
2023-02-05T10:14:09.896Z,2.07
2023-02-05T10:16:57.320Z,2.97
2023-02-05T10:19:55.306Z,2.43
2023-02-05T10:22:29.650Z,2.00
2023-02-05T10:25:31.910Z,3.10
2023-02-05T10:28:09.825Z,3.20
2023-02-05T10:30:47.434Z,4.27
2023-02-05T10:33:20.337Z,3.10
2023-02-05T10:35:57.997Z,2.70
2023-02-05T10:38:28.286Z,3.00
2023-02-05T10:41:00.647Z,3.37
2023-02-05T10:43:31.588Z,5.30
2023-02-05T10:46:01.991Z,3.73
2023-02-05T10:48:43.290Z,3.07
2023-02-05T10:51:16.133Z,2.90
2023-02-05T10:53:44.874Z,2.50
2023-02-05T10:56:18.543Z,3.00
2023-02-05T10:58:52.270Z,2.90
2023-02-05T11:01:23.866Z,2.43
2023-02-05T11:04:02.299Z,3.37
2023-02-05T11:06:37.534Z,2.40
2023-02-05T11:09:30.318Z,2.90
2023-02-05T11:12:00.736Z,3.63
2023-02-05T11:14:33.470Z,3.80
2023-02-05T11:17:08.489Z,4.13
2023-02-05T11:19:36.963Z,3.10
2023-02-05T11:22:06.602Z,2.63
2023-02-05T11:24:39.312Z,2.87
2023-02-05T11:27:30.549Z,4.53
2023-02-05T11:30:01.127Z,3.60
2023-02-05T11:32:40.112Z,2.67
2023-02-05T11:35:25.203Z,4.60
2023-02-05T11:38:01.924Z,3.97
2023-02-05T11:40:32.695Z,3.57
2023-02-05T11:43:18.778Z,3.30
2023-02-05T11:45:52.265Z,3.57
2023-02-05T11:48:32.466Z,3.50
2023-02-05T11:51:01.229Z,3.23
2023-02-05T11:53:29.584Z,3.43
2023-02-05T11:56:00.435Z,3.97
2023-02-05T11:58:36.990Z,4.23
2023-02-05T12:01:07.886Z,3.30
2023-02-05T12:03:38.159Z,4.43
2023-02-05T12:06:15.692Z,3.10
2023-02-05T12:08:49.395Z,2.77
2023-02-05T12:11:55.199Z,2.63
2023-02-05T12:14:33.291Z,4.40
2023-02-05T12:17:12.207Z,3.70
2023-02-05T12:19:49.679Z,3.33
2023-02-05T12:22:30.651Z,3.07
2023-02-05T12:25:13.654Z,3.50
2023-02-05T12:27:55.948Z,3.10
2023-02-05T12:30:37.590Z,4.20
2023-02-05T12:33:21.914Z,3.30
2023-02-05T12:36:01.264Z,2.70
2023-02-05T12:38:44.246Z,2.60
2023-02-05T12:41:26.270Z,2.90
2023-02-05T12:44:00.064Z,2.53
2023-02-05T12:46:44.194Z,2.20
2023-02-05T12:49:29.007Z,3.17
2023-02-05T12:52:11.075Z,2.37
2023-02-05T12:54:57.881Z,2.30
2023-02-05T12:57:35.506Z,2.27
2023-02-05T13:00:07.522Z,2.43
2023-02-05T13:02:40.063Z,2.87
2023-02-05T13:05:18.938Z,2.43
2023-02-05T13:07:52.905Z,1.90
2023-02-05T13:10:25.473Z,1.70
2023-02-05T13:12:59.069Z,2.67
2023-02-05T13:15:33.472Z,2.43
2023-02-05T13:18:06.537Z,2.50
2023-02-05T13:20:56.890Z,2.57
2023-02-05T13:23:44.338Z,2.30
2023-02-05T13:26:34.325Z,2.20
2023-02-05T13:29:07.455Z,2.07
2023-02-05T13:31:39.708Z,5.43
2023-02-05T13:34:09.923Z,4.73
2023-02-05T13:37:01.338Z,3.00
2023-02-05T13:39:50.426Z,2.40
2023-02-05T13:42:40.951Z,2.20
2023-02-05T13:45:36.718Z,2.30
2023-02-05T13:48:43.668Z,2.23
2023-02-05T13:51:30.031Z,2.90
2023-02-05T13:54:16.113Z,3.20
2023-02-05T13:57:01.459Z,3.27
2023-02-05T13:59:37.056Z,3.00
2023-02-05T14:02:20.784Z,3.33
2023-02-05T14:04:54.182Z,2.43
2023-02-05T14:07:26.279Z,3.33
2023-02-05T14:09:56.574Z,2.80
2023-02-05T14:12:30.085Z,3.23
2023-02-05T14:15:40.199Z,2.97
2023-02-05T14:18:11.138Z,2.10
2023-02-05T14:20:41.093Z,2.10
2023-02-05T14:23:17.597Z,3.80
2023-02-05T14:26:11.773Z,2.87
2023-02-05T14:28:52.415Z,2.90
2023-02-05T14:31:46.202Z,3.40
2023-02-05T14:34:46.286Z,3.10
2023-02-05T14:37:41.670Z,3.20
2023-02-05T14:40:25.909Z,2.80
2023-02-05T14:43:08.505Z,2.87
2023-02-05T14:45:45.625Z,3.17
2023-02-05T14:48:22.917Z,2.30
2023-02-05T14:51:03.393Z,3.80
2023-02-05T14:53:33.294Z,2.30
2023-02-05T14:56:02.300Z,3.00
2023-02-05T14:58:34.668Z,6.90
2023-02-05T15:01:42.915Z,6.40
2023-02-05T15:04:25.885Z,3.60
2023-02-05T15:06:55.316Z,4.10
2023-02-05T15:09:38.444Z,3.17
2023-02-05T15:12:33.177Z,4.20
2023-02-05T15:15:21.490Z,3.80
2023-02-05T15:17:54.619Z,3.70
2023-02-05T15:20:27.249Z,3.40
2023-02-05T15:23:02.171Z,3.10
2023-02-05T15:25:37.175Z,3.10
2023-02-05T15:28:10.524Z,4.00
2023-02-05T15:30:49.584Z,3.30
2023-02-05T15:33:28.480Z,3.50
2023-02-05T15:35:59.184Z,3.63
2023-02-05T15:38:34.280Z,3.00
2023-02-05T15:41:07.403Z,3.40
2023-02-05T15:43:35.628Z,3.90
2023-02-05T15:46:06.697Z,4.10
2023-02-05T15:48:38.928Z,7.57
2023-02-05T15:51:18.167Z,10.30
2023-02-05T15:53:49.917Z,5.60
2023-02-05T15:56:26.169Z,3.30
2023-02-05T15:58:57.582Z,4.57
2023-02-05T16:01:29.582Z,2.70
2023-02-05T16:03:59.955Z,4.00
2023-02-05T16:06:33.646Z,4.30
2023-02-05T16:09:01.925Z,4.07
2023-02-05T16:11:32.223Z,3.30
2023-02-05T16:14:05.057Z,4.53
2023-02-05T16:16:36.644Z,3.40
2023-02-05T16:19:13.208Z,3.77
2023-02-05T16:21:45.100Z,4.23
2023-02-05T16:24:23.419Z,3.57
2023-02-05T16:26:58.288Z,4.30
2023-02-05T16:29:46.134Z,3.60
2023-02-05T16:32:22.526Z,3.57
2023-02-05T16:34:52.364Z,4.20
2023-02-05T16:37:23.821Z,3.90
2023-02-05T16:39:54.989Z,4.20
2023-02-05T16:42:33.546Z,5.20
2023-02-05T16:45:18.430Z,2.83
2023-02-05T16:48:06.853Z,3.70
2023-02-05T16:50:38.567Z,4.50
2023-02-05T16:53:15.227Z,3.70
2023-02-05T16:55:44.747Z,3.93
2023-02-05T16:58:19.496Z,4.13
2023-02-05T17:00:58.815Z,3.63
2023-02-05T17:03:33.298Z,3.80
2023-02-05T17:06:04.961Z,4.37
2023-02-05T17:08:36.605Z,4.33
2023-02-05T17:11:06.805Z,3.80
2023-02-05T17:13:40.145Z,3.80
2023-02-05T17:16:28.521Z,4.40
2023-02-05T17:18:59.242Z,3.60
2023-02-05T17:21:31.152Z,4.80
2023-02-05T17:24:02.818Z,5.10
2023-02-05T17:26:33.539Z,3.97
2023-02-05T17:29:04.886Z,4.80
2023-02-05T17:31:35.579Z,4.70
2023-02-05T17:34:04.477Z,3.70
2023-02-05T17:36:34.658Z,4.23
2023-02-05T17:39:03.061Z,5.30
2023-02-05T17:41:55.028Z,5.20
2023-02-05T17:44:23.332Z,4.20
2023-02-05T17:46:54.114Z,16.97
2023-02-05T17:49:22.869Z,12.73
2023-02-05T17:51:52.497Z,6.47
2023-02-05T17:54:22.966Z,4.03
2023-02-05T17:56:52.267Z,4.30
2023-02-05T17:59:22.374Z,5.60
2023-02-05T18:01:51.527Z,4.07
2023-02-05T18:04:20.491Z,3.30
2023-02-05T18:06:53.899Z,4.13
2023-02-05T18:09:22.214Z,3.67
2023-02-05T18:11:50.434Z,3.20
2023-02-05T18:14:18.720Z,4.00
2023-02-05T18:16:46.965Z,3.77
2023-02-05T18:19:15.461Z,4.53
2023-02-05T18:21:45.881Z,3.57
2023-02-05T18:24:16.029Z,4.10
2023-02-05T18:26:44.324Z,3.90
2023-02-05T18:29:12.777Z,4.10
2023-02-05T18:31:40.967Z,3.47
2023-02-05T18:34:09.197Z,4.33
2023-02-05T18:36:37.323Z,4.13
2023-02-05T18:39:05.790Z,5.10
2023-02-05T18:41:38.270Z,4.60
2023-02-05T18:44:06.541Z,4.13
2023-02-05T18:46:35.308Z,4.70
2023-02-05T18:49:03.624Z,4.10
2023-02-05T18:51:32.379Z,3.80
2023-02-05T18:54:00.933Z,4.87
2023-02-05T18:56:29.985Z,4.17
2023-02-05T18:59:02.928Z,5.00
2023-02-05T19:01:35.092Z,4.60
2023-02-05T19:04:05.208Z,3.93
2023-02-05T19:06:34.057Z,4.80
2023-02-05T19:09:03.450Z,3.90
2023-02-05T19:11:32.339Z,4.10
2023-02-05T19:14:04.313Z,5.10
2023-02-05T19:16:33.794Z,4.27
2023-02-05T19:19:02.636Z,4.23
2023-02-05T19:21:31.882Z,4.40
2023-02-05T19:24:05.461Z,5.30
2023-02-05T19:26:36.081Z,4.03
2023-02-05T19:29:08.002Z,4.93
2023-02-05T19:31:37.960Z,4.73
2023-02-05T19:34:06.837Z,5.77
2023-02-05T19:36:35.133Z,6.53
2023-02-05T19:39:05.466Z,6.57
2023-02-05T19:41:36.681Z,6.27
2023-02-05T19:44:08.040Z,5.90
2023-02-05T19:46:38.631Z,6.27
2023-02-05T19:49:11.488Z,5.03
2023-02-05T19:51:40.062Z,5.27
2023-02-05T19:54:08.302Z,5.50
2023-02-05T19:56:38.129Z,5.20
2023-02-05T19:59:08.409Z,4.87
2023-02-05T20:01:38.738Z,5.30
2023-02-05T20:04:11.664Z,6.10
2023-02-05T20:06:42.386Z,5.10
2023-02-05T20:09:14.500Z,5.43
2023-02-05T20:11:48.519Z,6.67
2023-02-05T20:14:18.700Z,6.03
2023-02-05T20:16:52.464Z,5.30
2023-02-05T20:19:23.539Z,5.50
2023-02-05T20:21:57.258Z,5.13
2023-02-05T20:24:27.940Z,5.13
2023-02-05T20:26:56.993Z,5.07
2023-02-05T20:29:51.531Z,4.70
2023-02-05T20:32:22.491Z,5.57
2023-02-05T20:34:52.950Z,5.50
2023-02-05T20:37:22.021Z,4.90
2023-02-05T20:39:50.514Z,4.87
2023-02-05T20:42:21.775Z,5.67
2023-02-05T20:44:58.444Z,5.20
2023-02-05T20:47:30.807Z,4.80
2023-02-05T20:50:02.214Z,6.57
2023-02-05T20:52:34.775Z,4.70
2023-02-05T20:55:03.093Z,4.53
2023-02-05T20:57:31.740Z,4.73
2023-02-05T21:00:14.892Z,5.87
2023-02-05T21:02:45.052Z,4.67
2023-02-05T21:05:15.990Z,6.23
2023-02-05T21:07:49.686Z,4.80
2023-02-05T21:10:21.778Z,4.80
2023-02-05T21:12:49.977Z,5.87
2023-02-05T21:15:22.888Z,5.57
2023-02-05T21:17:52.762Z,4.37
2023-02-05T21:20:23.673Z,5.70
2023-02-05T21:22:57.034Z,4.73
2023-02-05T21:25:25.413Z,5.10
2023-02-05T21:27:57.885Z,4.47
2023-02-05T21:30:28.823Z,5.30
2023-02-05T21:32:59.578Z,6.77
2023-02-05T21:35:28.702Z,5.60
2023-02-05T21:37:58.384Z,6.87
2023-02-05T21:40:26.593Z,5.83
2023-02-05T21:42:54.823Z,6.20
2023-02-05T21:45:27.482Z,6.53
2023-02-05T21:47:55.888Z,7.00
2023-02-05T21:50:24.317Z,5.00
2023-02-05T21:52:57.122Z,5.40
2023-02-05T21:55:27.057Z,6.30
2023-02-05T21:57:57.214Z,6.37
2023-02-05T22:00:29.372Z,5.53
2023-02-05T22:03:00.364Z,4.80
2023-02-05T22:05:30.752Z,6.10
2023-02-05T22:07:59.603Z,5.30
2023-02-05T22:10:30.909Z,5.27
2023-02-05T22:13:02.300Z,6.07
2023-02-05T22:15:39.884Z,6.63
2023-02-05T22:18:11.378Z,5.47
2023-02-05T22:20:39.997Z,5.47
2023-02-05T22:23:08.303Z,6.07
2023-02-05T22:25:36.779Z,6.10
2023-02-05T22:28:05.638Z,7.87
2023-02-05T22:30:35.400Z,6.00
2023-02-05T22:33:03.692Z,7.97
2023-02-05T22:35:31.849Z,5.87
2023-02-05T22:37:59.966Z,6.80
2023-02-05T22:40:28.093Z,7.03
2023-02-05T22:42:56.296Z,6.40
2023-02-05T22:45:24.593Z,6.60
2023-02-05T22:47:54.105Z,6.93
2023-02-05T22:50:22.363Z,6.33
2023-02-05T22:52:50.572Z,6.27
2023-02-05T22:55:18.949Z,5.70
2023-02-05T22:57:47.078Z,6.40
2023-02-05T23:00:16.274Z,6.13
2023-02-05T23:02:44.519Z,5.50
2023-02-05T23:05:14.197Z,5.97
2023-02-05T23:07:42.572Z,7.00
2023-02-05T23:10:11.057Z,5.60
2023-02-05T23:12:39.267Z,7.03
2023-02-05T23:15:08.263Z,6.33
2023-02-05T23:17:37.752Z,6.73
2023-02-05T23:20:07.518Z,6.73
2023-02-05T23:22:37.435Z,7.70
2023-02-05T23:25:06.302Z,7.47
2023-02-05T23:27:36.478Z,5.70
2023-02-05T23:30:05.614Z,6.27
2023-02-05T23:32:36.310Z,7.03
2023-02-05T23:35:04.631Z,6.67
2023-02-05T23:37:33.162Z,7.87
2023-02-05T23:40:03.068Z,7.67
2023-02-05T23:42:31.335Z,6.87
2023-02-05T23:44:59.498Z,7.33
2023-02-05T23:47:27.779Z,6.13
2023-02-05T23:49:55.925Z,5.00
2023-02-05T23:52:24.325Z,6.30
2023-02-05T23:54:52.476Z,6.17
2023-02-05T23:57:22.293Z,6.93
2023-02-05T23:59:50.481Z,7.87
